createdAt,value
2019-04-04T00:00:01.627Z,92.00
2019-04-04T00:02:30.910Z,92.20
2019-04-04T00:04:58.662Z,92.20
2019-04-04T00:07:28.715Z,92.10
2019-04-04T00:09:55.874Z,92.20
2019-04-04T00:12:23.533Z,92.10
2019-04-04T00:14:51.368Z,92.20
2019-04-04T00:17:19.081Z,92.10
2019-04-04T00:19:46.852Z,92.10
2019-04-04T00:22:14.733Z,91.90
2019-04-04T00:24:42.494Z,92.00
2019-04-04T00:27:11.214Z,91.90
2019-04-04T00:29:40.059Z,91.80
2019-04-04T00:32:07.865Z,91.90
2019-04-04T00:34:35.542Z,91.90
2019-04-04T00:37:04.754Z,92.00
2019-04-04T00:39:32.962Z,91.90
2019-04-04T00:42:00.701Z,91.90
2019-04-04T00:44:28.233Z,91.90
2019-04-04T00:46:55.942Z,92.10
2019-04-04T00:49:23.501Z,92.00
2019-04-04T00:51:51.228Z,92.30
2019-04-04T00:54:18.875Z,92.50
2019-04-04T00:56:46.865Z,92.70
2019-04-04T00:59:16.052Z,92.90
2019-04-04T01:01:43.778Z,93.10
2019-04-04T01:04:11.319Z,93.30
2019-04-04T01:06:39.057Z,93.30
2019-04-04T01:09:11.520Z,93.30
2019-04-04T01:11:36.133Z,93.70
2019-04-04T01:14:03.857Z,93.60
2019-04-04T01:16:33.349Z,93.70
2019-04-04T01:19:01.081Z,93.80
2019-04-04T01:21:28.876Z,93.70
2019-04-04T01:23:58.322Z,93.50
2019-04-04T01:26:26.097Z,93.70
2019-04-04T01:28:53.757Z,93.70
2019-04-04T01:31:21.656Z,94.10
2019-04-04T01:33:51.566Z,94.10
2019-04-04T01:36:18.878Z,94.20
2019-04-04T01:38:46.621Z,94.30
2019-04-04T01:41:14.327Z,94.20
2019-04-04T01:43:41.890Z,94.40
2019-04-04T01:46:09.462Z,94.40
2019-04-04T01:48:37.221Z,94.30
2019-04-04T01:51:07.714Z,94.10
2019-04-04T01:53:34.779Z,94.10
2019-04-04T01:56:05.929Z,93.70
2019-04-04T01:58:32.177Z,93.60
2019-04-04T02:01:00.164Z,93.70
2019-04-04T02:03:27.971Z,93.70
2019-04-04T02:05:56.222Z,94.00
2019-04-04T02:08:25.206Z,93.80
2019-04-04T02:10:52.882Z,94.40
2019-04-04T02:13:20.649Z,94.60
2019-04-04T02:15:48.515Z,94.50
2019-04-04T02:18:16.179Z,94.30
2019-04-04T02:20:43.750Z,94.30
2019-04-04T02:23:11.526Z,94.20
2019-04-04T02:25:39.258Z,94.50
2019-04-04T02:28:08.930Z,94.80
2019-04-04T02:30:36.602Z,94.60
2019-04-04T02:33:04.362Z,94.40
2019-04-04T02:35:32.130Z,94.60
2019-04-04T02:37:59.909Z,94.80
2019-04-04T02:40:27.657Z,94.70
2019-04-04T02:42:55.647Z,94.70
2019-04-04T02:45:23.772Z,94.80
2019-04-04T02:47:51.602Z,94.90
2019-04-04T02:50:19.353Z,94.90
2019-04-04T02:52:47.136Z,94.70
2019-04-04T02:55:14.916Z,94.50
2019-04-04T02:57:42.664Z,94.20
2019-04-04T03:00:12.202Z,94.10
2019-04-04T03:02:40.184Z,93.90
2019-04-04T03:05:08.092Z,94.10
2019-04-04T03:07:36.066Z,94.40
2019-04-04T03:10:04.967Z,94.70
2019-04-04T03:12:32.749Z,94.40
2019-04-04T03:15:00.931Z,94.50
2019-04-04T03:17:31.539Z,94.30
2019-04-04T03:19:58.221Z,94.60
2019-04-04T03:22:27.568Z,94.80
2019-04-04T03:24:55.711Z,95.30
2019-04-04T03:27:26.863Z,96.10
2019-04-04T03:32:20.729Z,96.50
2019-04-04T03:34:50.859Z,97.10
2019-04-04T03:37:17.893Z,97.50
2019-04-04T03:39:45.609Z,97.90
2019-04-04T03:42:13.285Z,98.10
2019-04-04T03:44:41.085Z,98.30
2019-04-04T03:47:10.356Z,98.40
2019-04-04T03:49:38.210Z,98.30
2019-04-04T03:52:10.106Z,98.20
2019-04-04T03:54:35.673Z,98.40
2019-04-04T03:57:03.445Z,98.30
2019-04-04T03:59:32.388Z,98.50
2019-04-04T04:02:00.665Z,98.50
2019-04-04T04:04:28.504Z,99.10
2019-04-04T04:06:56.402Z,99.10
2019-04-04T04:09:26.488Z,99.20
2019-04-04T04:11:53.629Z,99.20
2019-04-04T04:14:21.989Z,99.30
2019-04-04T04:16:50.626Z,99.40
2019-04-04T04:19:18.310Z,99.30
2019-04-04T04:21:46.067Z,99.40
2019-04-04T04:24:13.815Z,99.80
2019-04-04T04:27:01.023Z,99.80
2019-04-04T04:29:29.932Z,99.90
2019-04-04T04:31:58.231Z,99.90
2019-04-04T04:34:25.923Z,99.90
2019-04-04T04:36:53.689Z,99.90
2019-04-04T04:39:21.374Z,99.90
2019-04-04T04:41:53.155Z,99.90
2019-04-04T04:44:18.592Z,99.90
2019-04-04T04:46:49.718Z,99.90
2019-04-04T04:49:15.746Z,99.90
2019-04-04T04:51:44.183Z,99.90
2019-04-04T04:54:12.088Z,99.90
2019-04-04T04:56:39.837Z,99.90
2019-04-04T04:59:07.630Z,99.90
2019-04-04T05:01:35.277Z,99.90
2019-04-04T05:04:02.921Z,99.90
2019-04-04T05:06:30.513Z,99.90
2019-04-04T05:08:58.395Z,99.90
2019-04-04T05:11:25.962Z,99.90
2019-04-04T05:13:53.724Z,99.90
2019-04-04T05:16:21.712Z,99.90
2019-04-04T05:21:24.865Z,99.90
2019-04-04T05:23:46.979Z,99.90
2019-04-04T05:26:15.368Z,99.90
2019-04-04T05:28:43.074Z,99.90
2019-04-04T05:31:10.785Z,99.90
2019-04-04T05:33:38.589Z,99.90
2019-04-04T05:36:06.321Z,99.90
2019-04-04T05:38:33.992Z,99.90
2019-04-04T05:41:01.669Z,99.90
2019-04-04T05:43:29.442Z,99.90
2019-04-04T05:45:57.114Z,99.90
2019-04-04T05:48:24.872Z,99.90
2019-04-04T05:50:52.577Z,99.90
2019-04-04T05:53:21.528Z,99.90
2019-04-04T05:55:49.296Z,99.90
2019-04-04T05:58:16.967Z,99.90
2019-04-04T06:00:46.457Z,99.90
2019-04-04T06:03:15.193Z,99.90
2019-04-04T06:05:43.834Z,99.90
2019-04-04T06:08:11.616Z,99.90
2019-04-04T06:10:39.374Z,99.90
2019-04-04T06:13:07.074Z,99.90
2019-04-04T06:15:34.941Z,99.90
2019-04-04T06:18:02.650Z,99.90
2019-04-04T06:20:30.446Z,99.90
2019-04-04T06:23:01.026Z,99.90
2019-04-04T06:25:34.356Z,99.90
2019-04-04T06:28:01.229Z,99.90
2019-04-04T06:30:43.609Z,99.90
2019-04-04T06:33:06.594Z,99.90
2019-04-04T06:35:34.381Z,99.90
2019-04-04T06:38:02.082Z,99.90
2019-04-04T06:40:30.298Z,99.90
2019-04-04T06:42:58.591Z,99.90
2019-04-04T06:45:26.333Z,99.90
2019-04-04T06:47:58.261Z,99.90
2019-04-04T06:50:26.261Z,99.90
2019-04-04T06:52:56.375Z,99.90
2019-04-04T06:55:23.980Z,99.90
2019-04-04T06:57:51.761Z,99.90
2019-04-04T07:00:19.463Z,99.90
2019-04-04T07:02:47.487Z,99.90
2019-04-04T07:05:15.393Z,99.90
2019-04-04T07:07:44.008Z,99.90
2019-04-04T07:10:12.131Z,99.90
2019-04-04T07:12:40.180Z,99.90
2019-04-04T07:15:11.146Z,99.90
2019-04-04T07:17:40.385Z,99.90
2019-04-04T07:20:08.161Z,99.90
2019-04-04T07:22:36.002Z,99.90
2019-04-04T07:25:06.575Z,99.90
2019-04-04T07:27:34.535Z,99.90
2019-04-04T08:11:55.575Z,99.90
2019-04-04T08:14:23.401Z,99.90
2019-04-04T08:16:51.182Z,99.90
2019-04-04T08:19:18.921Z,99.90
2019-04-04T08:21:46.611Z,99.90
2019-04-04T08:24:14.380Z,99.90
2019-04-04T08:26:42.062Z,99.90
2019-04-04T08:29:09.820Z,99.90
2019-04-04T08:31:37.580Z,99.90
2019-04-04T08:34:05.336Z,99.90
2019-04-04T08:36:35.699Z,99.90
2019-04-04T08:39:22.104Z,99.90
2019-04-04T08:41:52.269Z,99.90
2019-04-04T08:44:19.452Z,99.90
2019-04-04T08:46:47.108Z,99.90
2019-04-04T08:49:15.281Z,99.90
2019-04-04T08:51:43.081Z,99.90
2019-04-04T08:54:10.758Z,99.90
2019-04-04T08:56:38.585Z,99.90
2019-04-04T08:59:06.288Z,99.90
2019-04-04T09:01:33.941Z,99.90
2019-04-04T09:04:01.654Z,99.90
2019-04-04T09:06:29.541Z,99.90
2019-04-04T09:08:57.203Z,99.90
2019-04-04T09:11:24.959Z,99.90
2019-04-04T09:13:52.602Z,99.90
2019-04-04T09:16:20.507Z,99.90
2019-04-04T09:18:48.213Z,99.90
2019-04-04T09:21:15.989Z,99.90
2019-04-04T09:23:43.684Z,99.90
2019-04-04T09:26:11.402Z,99.90
2019-04-04T09:28:39.061Z,99.90
2019-04-04T09:31:06.782Z,99.90
2019-04-04T09:33:34.564Z,99.90
2019-04-04T09:36:02.331Z,99.90
2019-04-04T09:38:30.210Z,99.90
2019-04-04T09:40:57.974Z,99.90
2019-04-04T09:43:25.636Z,99.90
2019-04-04T09:45:53.367Z,99.90
2019-04-04T09:48:21.125Z,99.90
2019-04-04T09:50:48.803Z,99.90
2019-04-04T09:53:16.595Z,99.90
2019-04-04T09:55:44.376Z,99.90
2019-04-04T09:58:12.023Z,99.90
2019-04-04T10:00:40.061Z,99.90
2019-04-04T10:03:08.265Z,99.90
2019-04-04T10:05:36.110Z,99.90
2019-04-04T10:08:03.944Z,99.90
2019-04-04T10:10:32.257Z,99.90
2019-04-04T10:13:00.065Z,99.90
2019-04-04T10:15:28.262Z,99.90
2019-04-04T10:17:55.997Z,99.90
2019-04-04T10:20:23.697Z,99.90
2019-04-04T10:22:51.434Z,99.90
2019-04-04T10:25:19.133Z,99.90
2019-04-04T10:27:47.006Z,99.90
2019-04-04T10:30:15.584Z,99.90
2019-04-04T10:32:43.648Z,99.90
2019-04-04T10:35:11.545Z,99.90
2019-04-04T10:37:39.401Z,99.90
2019-04-04T10:40:07.370Z,99.90
2019-04-04T10:42:35.228Z,99.90
2019-04-04T10:45:03.687Z,99.90
2019-04-04T10:47:32.392Z,99.90
2019-04-04T10:50:00.077Z,99.90
2019-04-04T10:52:27.947Z,99.90
2019-04-04T10:54:55.786Z,99.90
2019-04-04T10:57:23.662Z,99.90
2019-04-04T10:59:54.690Z,99.90
2019-04-04T11:02:21.150Z,99.90
2019-04-04T11:04:48.877Z,99.90
2019-04-04T11:07:16.536Z,99.90
2019-04-04T11:09:44.312Z,99.90
2019-04-04T11:12:34.128Z,99.90
2019-04-04T11:15:01.169Z,99.90
2019-04-04T11:17:30.446Z,99.90
2019-04-04T11:19:58.219Z,99.90
2019-04-04T11:22:25.896Z,99.90
2019-04-04T11:24:53.746Z,99.90
2019-04-04T11:27:21.477Z,99.90
2019-04-04T11:29:49.216Z,99.90
2019-04-04T11:32:16.904Z,99.90
2019-04-04T11:34:52.997Z,99.90
2019-04-04T11:37:14.335Z,99.90
2019-04-04T11:39:53.660Z,99.90
2019-04-04T11:42:11.857Z,99.90
2019-04-04T11:44:39.587Z,99.90
2019-04-04T11:47:07.287Z,99.90
2019-04-04T11:49:35.019Z,99.90
2019-04-04T11:52:02.837Z,99.90
2019-04-04T11:54:30.591Z,99.90
2019-04-04T11:56:58.322Z,99.90
2019-04-04T11:59:25.883Z,99.90
2019-04-04T12:01:56.853Z,99.90
2019-04-04T12:04:28.164Z,99.90
2019-04-04T12:06:55.849Z,99.90
2019-04-04T12:09:23.550Z,99.90
2019-04-04T12:11:51.304Z,99.90
2019-04-04T12:14:18.989Z,99.90
2019-04-04T12:16:46.821Z,99.90
2019-04-04T12:19:14.526Z,99.90
2019-04-04T12:21:42.303Z,99.90
2019-04-04T12:24:09.999Z,99.90
2019-04-04T12:26:37.815Z,99.90
2019-04-04T12:29:05.529Z,99.90
2019-04-04T12:31:33.398Z,99.90
2019-04-04T12:34:02.168Z,99.90
2019-04-04T12:36:30.449Z,99.90
2019-04-04T12:38:58.054Z,99.90
2019-04-04T12:41:28.132Z,99.90
2019-04-04T12:43:55.375Z,99.90
2019-04-04T12:46:23.145Z,99.90
2019-04-04T12:48:50.830Z,99.90
2019-04-04T12:51:18.502Z,99.90
2019-04-04T12:53:46.209Z,99.90
2019-04-04T12:56:14.026Z,99.90
2019-04-04T12:58:41.617Z,99.90
2019-04-04T13:01:09.341Z,99.90
2019-04-04T13:03:37.114Z,99.90
2019-04-04T13:06:04.670Z,99.90
2019-04-04T13:08:32.474Z,99.90
2019-04-04T13:11:00.176Z,99.90
2019-04-04T13:13:28.067Z,99.90
2019-04-04T13:15:55.750Z,99.90
2019-04-04T13:18:23.781Z,99.90
2019-04-04T13:20:51.661Z,99.90
2019-04-04T13:23:19.524Z,99.90
2019-04-04T13:25:47.261Z,99.90
2019-04-04T13:28:15.020Z,99.90
2019-04-04T13:30:42.746Z,99.90
2019-04-04T13:33:10.412Z,99.90
2019-04-04T13:35:38.603Z,99.90
2019-04-04T13:38:06.538Z,99.90
2019-04-04T13:40:44.717Z,99.90
2019-04-04T13:43:04.041Z,99.90
2019-04-04T13:45:31.893Z,99.90
2019-04-04T13:47:59.653Z,99.90
2019-04-04T13:50:27.340Z,99.90
2019-04-04T13:52:55.263Z,99.90
2019-04-04T13:55:22.954Z,99.90
2019-04-04T13:57:50.743Z,99.90
2019-04-04T14:00:18.742Z,99.90
2019-04-04T14:02:46.814Z,99.90
2019-04-04T14:05:14.746Z,99.90
2019-04-04T14:07:43.964Z,99.90
2019-04-04T14:10:16.839Z,99.90
2019-04-04T14:12:43.411Z,99.90
2019-04-04T14:15:11.411Z,99.90
2019-04-04T14:17:39.405Z,99.90
2019-04-04T14:20:08.166Z,99.90
2019-04-04T14:22:36.072Z,99.90
2019-04-04T14:25:04.305Z,99.90
2019-04-04T14:27:32.473Z,99.90
2019-04-04T14:30:00.259Z,99.90
2019-04-04T14:32:28.088Z,99.90
2019-04-04T14:34:55.914Z,99.90
2019-04-04T14:37:23.634Z,99.90
2019-04-04T14:39:51.432Z,99.90
2019-04-04T14:42:19.162Z,99.90
2019-04-04T14:44:46.916Z,99.90
2019-04-04T14:47:16.264Z,99.90
2019-04-04T14:49:45.831Z,99.90
2019-04-04T14:52:13.917Z,99.90
2019-04-04T14:54:41.617Z,99.90
2019-04-04T14:57:09.493Z,99.90
2019-04-04T14:59:37.295Z,99.90
2019-04-04T15:02:11.063Z,99.90
2019-04-04T15:04:38.929Z,99.90
2019-04-04T15:07:06.709Z,99.90
2019-04-04T15:09:34.318Z,99.90
2019-04-04T15:12:02.102Z,99.90
2019-04-04T15:14:29.919Z,99.90
2019-04-04T15:16:57.866Z,99.90
2019-04-04T15:19:25.675Z,99.90
2019-04-04T15:21:53.351Z,99.90
2019-04-04T15:24:21.086Z,99.90
2019-04-04T15:26:49.019Z,99.90
2019-04-04T15:29:16.716Z,99.90
2019-04-04T15:31:44.424Z,99.90
2019-04-04T15:34:12.204Z,99.90
2019-04-04T15:36:40.000Z,99.90
2019-04-04T15:39:07.763Z,99.90
2019-04-04T15:41:37.291Z,99.90
2019-04-04T15:44:05.108Z,99.90
2019-04-04T15:46:32.839Z,99.90
2019-04-04T15:49:00.812Z,99.90
2019-04-04T15:51:28.619Z,99.90
2019-04-04T15:53:56.353Z,99.90
2019-04-04T15:56:23.961Z,99.90
2019-04-04T15:58:51.762Z,99.90
2019-04-04T16:01:19.468Z,99.90
2019-04-04T16:03:47.366Z,99.90
2019-04-04T16:06:15.065Z,99.90
2019-04-04T16:08:42.837Z,99.90
2019-04-04T16:11:10.473Z,99.90
2019-04-04T16:13:39.225Z,99.90
2019-04-04T16:16:07.098Z,99.90
2019-04-04T16:18:35.021Z,99.90
2019-04-04T16:21:02.754Z,99.40
2019-04-04T16:23:30.803Z,99.30
2019-04-04T16:25:58.577Z,99.10
2019-04-04T16:28:26.545Z,98.80
2019-04-04T16:30:54.326Z,99.10
2019-04-04T16:33:22.201Z,99.10
2019-04-04T16:35:49.913Z,99.30
2019-04-04T16:38:17.722Z,99.00
2019-04-04T16:40:45.465Z,98.40
2019-04-04T16:43:13.240Z,98.80
2019-04-04T16:45:41.027Z,98.60
2019-04-04T16:48:08.728Z,98.60
2019-04-04T16:50:36.524Z,98.60
2019-04-04T16:53:04.309Z,98.80
2019-04-04T16:55:32.136Z,98.70
2019-04-04T16:58:00.154Z,99.10
2019-04-04T17:00:28.603Z,98.90
2019-04-04T17:02:56.432Z,98.90
2019-04-04T17:05:24.273Z,98.70
2019-04-04T17:07:52.091Z,98.60
2019-04-04T17:10:19.964Z,99.00
2019-04-04T17:12:48.267Z,99.00
2019-04-04T17:15:16.058Z,99.10
2019-04-04T17:17:43.929Z,99.10
2019-04-04T17:20:13.737Z,98.80
2019-04-04T17:22:41.731Z,99.00
2019-04-04T17:25:09.633Z,98.90
2019-04-04T17:27:37.456Z,98.80
2019-04-04T17:30:07.031Z,98.80
2019-04-04T17:32:35.182Z,98.70
2019-04-04T17:35:04.413Z,99.20
2019-04-04T17:37:32.529Z,98.80
2019-04-04T17:40:00.261Z,98.90
2019-04-04T17:42:32.752Z,98.90
2019-04-04T17:45:01.139Z,98.80
2019-04-04T17:47:29.973Z,99.00
2019-04-04T17:49:58.260Z,98.80
2019-04-04T17:52:26.561Z,98.70
2019-04-04T17:54:54.484Z,98.80
2019-04-04T17:57:22.487Z,98.80
2019-04-04T17:59:53.264Z,98.90
2019-04-04T18:02:21.518Z,99.00
2019-04-04T18:04:49.229Z,98.60
2019-04-04T18:07:17.154Z,98.60
2019-04-04T18:09:45.669Z,98.80
2019-04-04T18:12:13.659Z,99.10
2019-04-04T18:14:41.404Z,99.20
2019-04-04T18:17:19.381Z,99.30
2019-04-04T18:20:19.427Z,99.50
2019-04-04T18:22:56.121Z,99.30
2019-04-04T18:25:31.321Z,99.60
2019-04-04T18:28:22.855Z,99.70
2019-04-04T18:31:05.206Z,99.70
2019-04-04T18:33:40.519Z,99.90
2019-04-04T18:36:10.583Z,99.90
2019-04-04T18:38:49.625Z,99.90
2019-04-04T18:41:18.318Z,99.70
2019-04-04T18:43:46.228Z,99.90
2019-04-04T18:46:13.561Z,99.90
2019-04-04T18:48:41.194Z,99.90
2019-04-04T18:51:08.885Z,99.90
2019-04-04T18:53:36.874Z,99.90
2019-04-04T18:56:04.748Z,99.90
2019-04-04T18:58:32.269Z,99.90
2019-04-04T19:00:59.608Z,99.90
2019-04-04T19:03:29.621Z,99.90
2019-04-04T19:08:38.154Z,99.90
2019-04-04T19:11:06.134Z,99.80
2019-04-04T19:13:43.792Z,99.90
2019-04-04T19:16:03.796Z,99.90
2019-04-04T19:18:31.537Z,99.90
2019-04-04T19:21:01.839Z,99.90
2019-04-04T19:23:31.791Z,99.90
2019-04-04T19:25:59.583Z,99.90
2019-04-04T19:28:27.422Z,99.90
2019-04-04T19:30:57.242Z,99.90
2019-04-04T19:33:25.085Z,99.90
2019-04-04T19:35:52.982Z,99.90
2019-04-04T19:38:20.618Z,99.90
2019-04-04T19:40:48.382Z,99.90
2019-04-04T19:43:18.361Z,99.80
2019-04-04T19:45:46.006Z,99.90
2019-04-04T19:48:13.812Z,99.90
2019-04-04T19:50:41.580Z,99.90
2019-04-04T19:53:09.424Z,99.90
2019-04-04T19:55:37.283Z,99.90
2019-04-04T19:58:05.078Z,99.90
2019-04-04T20:00:32.951Z,99.90
2019-04-04T20:03:00.719Z,99.90
2019-04-04T20:05:28.504Z,99.50
2019-04-04T20:07:56.197Z,99.80
2019-04-04T20:10:23.973Z,99.50
2019-04-04T20:12:51.700Z,99.70
2019-04-04T20:15:19.440Z,99.50
2019-04-04T20:17:47.415Z,99.40
2019-04-04T20:20:15.141Z,99.10
2019-04-04T20:22:42.991Z,99.20
2019-04-04T20:25:10.728Z,99.40
2019-04-04T20:27:38.718Z,99.60
2019-04-04T20:30:07.402Z,99.70
2019-04-04T20:32:35.911Z,99.60
2019-04-04T20:35:04.009Z,99.50
2019-04-04T20:37:33.378Z,99.30
2019-04-04T20:40:01.098Z,99.00
2019-04-04T20:42:30.561Z,99.00
2019-04-04T20:44:58.261Z,99.20
2019-04-04T20:47:26.097Z,98.90
2019-04-04T20:49:53.744Z,99.30
2019-04-04T20:52:21.494Z,99.40
2019-04-04T20:54:49.141Z,99.50
2019-04-04T20:57:17.058Z,99.70
2019-04-04T20:59:44.765Z,99.90
2019-04-04T21:02:12.541Z,99.90
2019-04-04T21:04:40.249Z,99.90
2019-04-04T21:07:07.957Z,99.50
2019-04-04T21:09:35.728Z,99.50
2019-04-04T21:12:03.455Z,99.40
2019-04-04T21:14:31.227Z,99.40
2019-04-04T21:16:58.886Z,99.40
2019-04-04T21:19:26.569Z,99.30
2019-04-04T21:21:54.252Z,99.30
2019-04-04T21:24:22.005Z,99.10
2019-04-04T21:26:49.712Z,99.30
2019-04-04T21:29:17.497Z,99.50
2019-04-04T21:31:45.078Z,99.00
2019-04-04T21:34:12.733Z,99.00
2019-04-04T21:36:40.534Z,99.50
2019-04-04T21:39:08.278Z,98.70
2019-04-04T21:41:36.003Z,99.10
2019-04-04T21:44:09.208Z,99.10
2019-04-04T21:46:33.417Z,98.60
2019-04-04T21:49:01.233Z,98.70
2019-04-04T21:51:28.918Z,98.30
2019-04-04T21:53:56.583Z,98.40
2019-04-04T21:56:24.407Z,98.70
2019-04-04T21:58:52.127Z,98.40
2019-04-04T22:01:19.879Z,98.10
2019-04-04T22:03:47.957Z,98.10
2019-04-04T22:06:15.707Z,98.20
2019-04-04T22:08:43.400Z,98.30
2019-04-04T22:11:11.236Z,98.20
2019-04-04T22:13:38.942Z,98.30
2019-04-04T22:16:06.748Z,98.20
2019-04-04T22:18:34.563Z,98.30
2019-04-04T22:21:02.304Z,98.00
2019-04-04T22:23:30.246Z,98.20
2019-04-04T22:25:57.981Z,98.20
2019-04-04T22:28:25.773Z,98.10
2019-04-04T22:30:53.429Z,98.10
2019-04-04T22:33:21.014Z,98.00
2019-04-04T22:35:48.645Z,98.20
2019-04-04T22:38:16.326Z,98.10
2019-04-04T22:40:44.083Z,98.10
2019-04-04T22:43:11.777Z,98.20
2019-04-04T22:45:39.538Z,98.30
2019-04-04T22:48:07.252Z,98.40
2019-04-04T22:50:34.925Z,98.30
2019-04-04T22:53:02.567Z,98.30
2019-04-04T22:55:30.333Z,98.20
2019-04-04T22:57:58.186Z,98.30
2019-04-04T23:00:25.853Z,98.40
2019-04-04T23:02:53.706Z,98.20
2019-04-04T23:05:21.888Z,98.30
2019-04-04T23:07:49.613Z,98.50
2019-04-04T23:10:17.310Z,98.40
2019-04-04T23:12:45.105Z,98.50
2019-04-04T23:15:12.780Z,98.10
2019-04-04T23:17:40.588Z,98.20
2019-04-04T23:20:08.389Z,98.10
2019-04-04T23:22:36.230Z,97.80
2019-04-04T23:25:04.824Z,98.00
2019-04-04T23:27:33.579Z,98.00
2019-04-04T23:30:01.261Z,97.50
2019-04-04T23:32:30.866Z,97.70
2019-04-04T23:34:58.554Z,97.80
2019-04-04T23:37:26.258Z,97.60
2019-04-04T23:39:53.973Z,97.40
2019-04-04T23:42:21.683Z,97.10
2019-04-04T23:45:00.352Z,97.10
2019-04-04T23:47:19.250Z,96.90
2019-04-04T23:49:46.996Z,97.10
2019-04-04T23:52:14.669Z,97.10
2019-04-04T23:54:42.562Z,96.90
2019-04-04T23:57:10.267Z,97.00
2019-04-04T23:59:38.041Z,96.80
